createdAt,value
2022-09-15T00:00:26.091Z,97003.88
2022-09-15T00:01:29.388Z,96988.47
2022-09-15T00:02:32.463Z,96986.38
2022-09-15T00:03:39.321Z,96975.94
2022-09-15T00:04:42.256Z,96962.72
2022-09-15T00:05:45.806Z,96941.22
2022-09-15T00:06:48.664Z,96931.47
2022-09-15T00:07:51.862Z,96930.69
2022-09-15T00:08:55.235Z,96928.50
2022-09-15T00:09:58.182Z,96933.38
2022-09-15T00:11:19.744Z,96937.47
2022-09-15T00:12:22.975Z,96938.19
2022-09-15T00:13:26.663Z,96934.66
2022-09-15T00:14:29.845Z,96947.06
2022-09-15T00:15:32.796Z,96963.78
2022-09-15T00:16:36.361Z,96963.69
2022-09-15T00:17:43.390Z,96989.44
2022-09-15T00:18:47.273Z,97000.69
2022-09-15T00:19:50.369Z,96996.47
2022-09-15T00:20:53.392Z,97001.22
2022-09-15T00:21:56.529Z,96996.97
2022-09-15T00:22:59.676Z,96988.56
2022-09-15T00:24:03.047Z,96994.19
2022-09-15T00:25:06.547Z,97005.97
2022-09-15T00:26:15.315Z,97003.78
2022-09-15T00:27:18.074Z,97000.94
2022-09-15T00:28:23.145Z,97007.88
2022-09-15T00:29:26.068Z,97012.00
2022-09-15T00:30:29.009Z,97032.84
2022-09-15T00:31:33.616Z,97041.19
2022-09-15T00:32:38.268Z,97048.91
2022-09-15T00:33:48.151Z,97052.53
2022-09-15T00:34:51.652Z,97051.19
2022-09-15T00:35:54.885Z,97059.59
2022-09-15T00:36:57.838Z,97067.25
2022-09-15T00:38:00.880Z,97076.31
2022-09-15T00:39:06.276Z,97077.69
2022-09-15T00:40:09.664Z,97085.22
2022-09-15T00:41:19.176Z,97083.03
2022-09-15T00:42:24.306Z,97076.00
2022-09-15T00:43:50.649Z,97080.09
2022-09-15T00:45:02.317Z,97076.56
2022-09-15T00:46:10.322Z,97084.19
2022-09-15T00:47:19.675Z,97083.47
2022-09-15T00:48:27.190Z,97082.75
2022-09-15T00:49:34.608Z,97086.06
2022-09-15T00:50:42.181Z,97094.28
2022-09-15T00:51:55.057Z,97092.13
2022-09-15T00:53:02.041Z,97089.22
2022-09-15T00:54:17.811Z,97089.22
2022-09-15T00:55:53.177Z,97082.94
2022-09-15T00:57:01.555Z,97087.06
2022-09-15T00:58:08.240Z,97075.44
2022-09-15T01:00:40.268Z,97076.19
2022-09-15T01:01:45.027Z,97074.66
2022-09-15T01:02:49.511Z,97071.03
2022-09-15T01:03:54.165Z,97070.25
2022-09-15T01:05:00.293Z,97073.03
2022-09-15T01:06:15.829Z,97078.59
2022-09-15T01:07:26.582Z,97077.84
2022-09-15T01:08:36.727Z,97080.59
2022-09-15T01:10:00.429Z,97084.03
2022-09-15T01:11:03.369Z,97088.19
2022-09-15T01:12:06.766Z,97087.50
2022-09-15T01:13:13.006Z,97072.97
2022-09-15T01:14:16.205Z,97077.81
2022-09-15T01:15:21.242Z,97076.34
2022-09-15T01:18:27.330Z,97063.75
2022-09-15T01:19:51.720Z,97069.25
2022-09-15T01:21:00.996Z,97069.19
2022-09-15T01:22:41.041Z,97075.66
2022-09-15T01:24:02.433Z,97078.97
2022-09-15T01:25:39.278Z,97072.66
2022-09-15T01:27:37.778Z,97073.34
2022-09-15T01:28:44.774Z,97063.50
2022-09-15T01:29:59.951Z,97072.56
2022-09-15T01:31:30.086Z,97070.41
2022-09-15T01:33:20.202Z,97073.87
2022-09-15T01:34:26.825Z,97073.78
2022-09-15T01:35:44.780Z,97073.00
2022-09-15T01:36:59.717Z,97084.00
2022-09-15T01:38:12.099Z,97075.63
2022-09-15T01:39:30.535Z,97071.47
2022-09-15T01:40:45.540Z,97068.66
2022-09-15T01:41:55.326Z,97069.38
2022-09-15T01:43:02.448Z,97070.03
2022-09-15T01:44:20.305Z,97067.16
2022-09-15T01:45:30.814Z,97069.91
2022-09-15T01:46:40.625Z,97072.03
2022-09-15T01:47:48.461Z,97071.22
2022-09-15T01:48:54.134Z,97076.09
2022-09-15T01:50:02.992Z,97074.66
2022-09-15T01:51:07.342Z,97076.72
2022-09-15T01:52:10.614Z,97081.72
2022-09-15T01:53:18.409Z,97081.59
2022-09-15T01:54:27.803Z,97076.63
2022-09-15T01:55:38.995Z,97068.97
2022-09-15T01:56:42.431Z,97062.03
2022-09-15T01:57:45.710Z,97066.37
2022-09-15T01:58:51.330Z,97067.00
2022-09-15T01:59:56.533Z,97074.59
2022-09-15T02:01:06.436Z,97071.06
2022-09-15T02:02:16.059Z,97077.31
2022-09-15T02:04:02.847Z,97073.75
2022-09-15T02:05:16.859Z,97074.47
2022-09-15T02:06:36.434Z,97069.00
2022-09-15T02:07:49.241Z,97065.53
2022-09-15T02:09:07.706Z,97072.38
2022-09-15T02:10:20.432Z,97071.06
2022-09-15T02:11:28.332Z,97079.41
2022-09-15T02:12:50.997Z,97080.72
2022-09-15T02:14:36.446Z,97075.78
2022-09-15T02:15:52.081Z,97071.63
2022-09-15T02:16:55.312Z,97072.19
2022-09-15T02:17:59.390Z,97075.66
2022-09-15T02:19:17.933Z,97077.81
2022-09-15T02:20:50.157Z,97083.31
2022-09-15T02:22:28.044Z,97083.22
2022-09-15T02:23:37.902Z,97084.59
2022-09-15T02:24:50.286Z,97075.66
2022-09-15T02:26:06.749Z,97072.09
2022-09-15T02:27:16.313Z,97077.62
2022-09-15T02:28:26.370Z,97080.41
2022-09-15T02:29:34.015Z,97079.72
2022-09-15T02:30:42.164Z,97081.25
2022-09-15T02:31:46.805Z,97080.53
2022-09-15T02:32:56.413Z,97076.25
2022-09-15T02:34:06.046Z,97071.41
2022-09-15T02:35:10.166Z,97086.62
2022-09-15T02:36:15.924Z,97082.47
2022-09-15T02:37:23.102Z,97086.00
2022-09-15T02:38:29.824Z,97083.41
2022-09-15T02:39:37.348Z,97079.13
2022-09-15T02:40:43.478Z,97083.16
2022-09-15T02:41:49.017Z,97074.94
2022-09-15T02:42:56.038Z,97070.09
2022-09-15T02:43:58.916Z,97065.84
2022-09-15T02:45:02.492Z,97070.69
2022-09-15T02:46:10.380Z,97067.22
2022-09-15T02:47:13.704Z,97067.22
2022-09-15T02:48:16.824Z,97069.28
2022-09-15T02:49:20.354Z,97077.59
2022-09-15T02:50:28.014Z,97073.38
2022-09-15T02:51:31.446Z,97072.72
2022-09-15T02:52:38.384Z,97074.87
2022-09-15T02:53:43.213Z,97072.09
2022-09-15T02:54:46.471Z,97074.81
2022-09-15T02:55:49.738Z,97085.19
2022-09-15T02:56:52.672Z,97073.31
2022-09-15T02:57:57.496Z,97069.19
2022-09-15T02:59:01.784Z,97067.81
2022-09-15T03:00:17.045Z,97070.47
2022-09-15T03:01:20.089Z,97074.03
2022-09-15T03:02:23.725Z,97073.44
2022-09-15T03:03:26.840Z,97069.88
2022-09-15T03:04:31.350Z,97078.81
2022-09-15T03:05:37.629Z,97067.63
2022-09-15T03:06:42.233Z,97062.41
2022-09-15T03:07:45.696Z,97067.81
2022-09-15T03:08:52.460Z,97065.00
2022-09-15T03:09:56.564Z,97067.78
2022-09-15T03:10:59.475Z,97071.81
2022-09-15T03:12:04.352Z,97075.88
2022-09-15T03:13:09.129Z,97068.88
2022-09-15T03:14:12.202Z,97077.91
2022-09-15T03:15:19.738Z,97068.09
2022-09-15T03:16:23.082Z,97070.81
2022-09-15T03:17:25.951Z,97079.81
2022-09-15T03:18:28.964Z,97083.31
2022-09-15T03:19:32.454Z,97076.34
2022-09-15T03:20:35.257Z,97075.53
2022-09-15T03:21:38.818Z,97080.41
2022-09-15T03:22:45.547Z,97079.72
2022-09-15T03:23:48.663Z,97076.91
2022-09-15T03:24:52.051Z,97074.13
2022-09-15T03:25:54.751Z,97070.12
2022-09-15T03:26:57.685Z,97076.34
2022-09-15T03:28:00.499Z,97080.41
2022-09-15T03:29:03.826Z,97081.09
2022-09-15T03:30:09.384Z,97079.69
2022-09-15T03:31:13.831Z,97081.13
2022-09-15T03:33:26.083Z,97070.72
2022-09-15T03:34:29.316Z,97078.34
2022-09-15T03:35:32.130Z,97082.50
2022-09-15T03:36:35.175Z,97077.59
2022-09-15T03:37:42.238Z,97076.22
2022-09-15T03:38:45.423Z,97074.13
2022-09-15T03:39:49.216Z,97074.81
2022-09-15T03:41:03.631Z,97070.62
2022-09-15T03:42:06.706Z,97074.13
2022-09-15T03:43:18.012Z,97075.41
2022-09-15T03:44:21.950Z,97071.97
2022-09-15T03:45:25.353Z,97076.84
2022-09-15T03:46:28.833Z,97068.50
2022-09-15T03:47:32.855Z,97071.34
2022-09-15T03:48:36.445Z,97076.13
2022-09-15T03:49:39.393Z,97074.69
2022-09-15T03:50:42.515Z,97069.13
2022-09-15T03:51:45.630Z,97069.94
2022-09-15T03:52:48.759Z,97076.84
2022-09-15T03:53:52.473Z,97079.56
2022-09-15T03:54:55.833Z,97077.50
2022-09-15T03:56:11.765Z,97084.53
2022-09-15T03:57:14.998Z,97086.62
2022-09-15T03:58:19.110Z,97082.59
2022-09-15T03:59:23.459Z,97084.16
2022-09-15T04:00:26.771Z,97091.75
2022-09-15T04:01:30.735Z,97092.34
2022-09-15T04:02:33.993Z,97091.13
2022-09-15T04:03:43.257Z,97085.72
2022-09-15T04:04:49.525Z,97092.81
2022-09-15T04:05:53.215Z,97092.34
2022-09-15T04:06:56.304Z,97090.34
2022-09-15T04:07:59.260Z,97090.44
2022-09-15T04:09:02.587Z,97091.09
2022-09-15T04:10:10.236Z,97094.59
2022-09-15T04:11:14.231Z,97097.37
2022-09-15T04:12:17.592Z,97093.44
2022-09-15T04:13:28.613Z,97096.78
2022-09-15T04:14:32.287Z,97103.06
2022-09-15T04:15:35.103Z,97096.09
2022-09-15T04:16:38.189Z,97101.59
2022-09-15T04:17:41.328Z,97097.34
2022-09-15T04:18:45.109Z,97102.91
2022-09-15T04:19:47.999Z,97104.28
2022-09-15T04:20:51.283Z,97099.31
2022-09-15T04:21:54.428Z,97102.06
2022-09-15T04:22:58.700Z,97102.72
2022-09-15T04:24:05.337Z,97106.84
2022-09-15T04:25:09.497Z,97109.59
2022-09-15T04:26:24.736Z,97108.84
2022-09-15T04:27:30.281Z,97112.31
2022-09-15T04:28:37.532Z,97115.09
2022-09-15T04:29:40.610Z,97113.72
2022-09-15T04:30:44.172Z,97112.25
2022-09-15T04:31:47.334Z,97122.66
2022-09-15T04:32:51.865Z,97124.03
2022-09-15T04:33:55.896Z,97126.03
2022-09-15T04:34:59.012Z,97128.09
2022-09-15T04:36:06.831Z,97135.00
2022-09-15T04:37:14.255Z,97134.38
2022-09-15T04:38:17.402Z,97135.72
2022-09-15T04:39:20.430Z,97141.25
2022-09-15T04:40:23.599Z,97136.38
2022-09-15T04:41:27.616Z,97131.53
2022-09-15T04:42:31.653Z,97135.09
2022-09-15T04:43:35.579Z,97122.66
2022-09-15T04:44:38.805Z,97122.16
2022-09-15T04:45:41.716Z,97125.09
2022-09-15T04:46:44.825Z,97125.00
2022-09-15T04:47:48.742Z,97120.75
2022-09-15T04:48:52.058Z,97115.25
2022-09-15T04:49:55.021Z,97119.44
2022-09-15T04:51:07.162Z,97121.53
2022-09-15T04:52:10.181Z,97123.72
2022-09-15T04:53:13.793Z,97126.53
2022-09-15T04:54:16.780Z,97118.22
2022-09-15T04:55:20.087Z,97116.84
2022-09-15T04:56:25.958Z,97116.91
2022-09-15T04:57:29.193Z,97116.19
2022-09-15T04:58:39.986Z,97120.50
2022-09-15T04:59:43.014Z,97112.16
2022-09-15T05:00:46.036Z,97117.00
2022-09-15T05:01:49.426Z,97116.28
2022-09-15T05:02:52.372Z,97112.87
2022-09-15T05:03:56.060Z,97114.31
2022-09-15T05:04:59.384Z,97113.00
2022-09-15T05:06:02.312Z,97115.13
2022-09-15T05:07:05.327Z,97124.16
2022-09-15T05:08:08.783Z,97125.56
2022-09-15T05:09:15.061Z,97127.75
2022-09-15T05:10:19.365Z,97132.03
2022-09-15T05:11:23.133Z,97132.69
2022-09-15T05:12:26.136Z,97125.69
2022-09-15T05:13:29.759Z,97124.34
2022-09-15T05:14:32.793Z,97120.22
2022-09-15T05:15:35.968Z,97125.78
2022-09-15T05:16:40.450Z,97133.44
2022-09-15T05:17:43.294Z,97131.44
2022-09-15T05:18:48.010Z,97135.56
2022-09-15T05:19:51.112Z,97141.91
2022-09-15T05:20:59.410Z,97150.97
2022-09-15T05:22:06.289Z,97156.59
2022-09-15T05:23:10.733Z,97171.22
2022-09-15T05:24:13.785Z,97167.09
2022-09-15T05:25:16.841Z,97166.37
2022-09-15T05:26:23.613Z,97161.62
2022-09-15T05:27:26.326Z,97156.75
2022-09-15T05:28:29.492Z,97158.25
2022-09-15T05:29:32.350Z,97163.72
2022-09-15T05:30:43.603Z,97161.72
2022-09-15T05:31:47.036Z,97173.66
2022-09-15T05:32:50.239Z,97166.75
2022-09-15T05:33:54.499Z,97177.12
2022-09-15T05:34:58.222Z,97181.22
2022-09-15T05:36:01.339Z,97183.34
2022-09-15T05:37:05.507Z,97181.59
2022-09-15T05:38:08.341Z,97173.84
2022-09-15T05:39:11.573Z,97177.16
2022-09-15T05:40:15.460Z,97179.91
2022-09-15T05:41:19.264Z,97174.44
2022-09-15T05:42:22.157Z,97171.00
2022-09-15T05:43:25.416Z,97164.03
2022-09-15T05:44:28.459Z,97167.53
2022-09-15T05:45:31.431Z,97168.22
2022-09-15T05:46:35.012Z,97173.09
2022-09-15T05:47:38.360Z,97184.25
2022-09-15T05:48:41.682Z,97179.47
2022-09-15T05:49:44.661Z,97183.72
2022-09-15T05:50:51.703Z,97180.87
2022-09-15T05:51:54.500Z,97180.22
2022-09-15T05:52:57.812Z,97188.53
2022-09-15T05:54:00.851Z,97179.47
2022-09-15T05:55:03.803Z,97172.81
2022-09-15T05:56:17.557Z,97184.62
2022-09-15T05:57:20.800Z,97180.34
2022-09-15T05:58:24.997Z,97179.66
2022-09-15T05:59:28.787Z,97172.69
2022-09-15T06:00:32.024Z,97168.59
2022-09-15T06:01:35.682Z,97166.59
2022-09-15T06:02:39.054Z,97172.94
2022-09-15T06:03:42.574Z,97171.56
2022-09-15T06:04:49.428Z,97173.66
2022-09-15T06:05:59.817Z,97182.72
2022-09-15T06:07:03.164Z,97166.81
2022-09-15T06:08:07.132Z,97166.19
2022-09-15T06:09:10.046Z,97171.06
2022-09-15T06:10:13.154Z,97175.38
2022-09-15T06:11:18.807Z,97181.63
2022-09-15T06:12:22.182Z,97173.31
2022-09-15T06:13:25.242Z,97175.59
2022-09-15T06:14:28.472Z,97167.94
2022-09-15T06:15:32.188Z,97169.44
2022-09-15T06:16:35.928Z,97168.72
2022-09-15T06:17:39.203Z,97170.16
2022-09-15T06:18:42.835Z,97184.09
2022-09-15T06:19:46.023Z,97177.81
2022-09-15T06:20:49.012Z,97177.09
2022-09-15T06:21:55.476Z,97176.41
2022-09-15T06:22:59.297Z,97183.41
2022-09-15T06:24:05.358Z,97182.72
2022-09-15T06:25:08.898Z,97186.91
2022-09-15T06:26:17.198Z,97185.59
2022-09-15T06:27:20.814Z,97182.19
2022-09-15T06:28:24.703Z,97194.09
2022-09-15T06:29:29.291Z,97191.31
2022-09-15T06:30:32.866Z,97191.41
2022-09-15T06:31:36.298Z,97193.72
2022-09-15T06:32:39.453Z,97198.63
2022-09-15T06:35:08.444Z,97195.19
2022-09-15T06:36:13.365Z,97193.81
2022-09-15T06:37:16.637Z,97191.81
2022-09-15T06:38:19.887Z,97190.50
2022-09-15T06:39:23.262Z,97190.06
2022-09-15T06:40:26.348Z,97196.16
2022-09-15T06:41:47.089Z,97193.28
2022-09-15T06:42:56.029Z,97200.97
2022-09-15T06:43:59.855Z,97204.37
2022-09-15T06:45:04.702Z,97202.31
2022-09-15T06:46:11.005Z,97204.53
2022-09-15T06:47:15.656Z,97198.91
2022-09-15T06:48:24.825Z,97200.88
2022-09-15T06:49:32.711Z,97200.94
2022-09-15T06:50:35.520Z,97201.69
2022-09-15T06:51:44.302Z,97198.78
2022-09-15T06:52:47.206Z,97204.37
2022-09-15T06:53:50.558Z,97205.81
2022-09-15T06:54:57.335Z,97214.16
2022-09-15T06:56:09.195Z,97213.47
2022-09-15T06:57:12.505Z,97210.75
2022-09-15T06:58:15.280Z,97207.91
2022-09-15T06:59:18.495Z,97198.16
2022-09-15T07:00:21.845Z,97199.53
2022-09-15T07:01:27.309Z,97200.94
2022-09-15T07:02:30.284Z,97202.31
2022-09-15T07:03:33.513Z,97212.81
2022-09-15T07:04:39.723Z,97217.69
2022-09-15T07:05:44.492Z,97212.78
2022-09-15T07:06:48.194Z,97222.59
2022-09-15T07:07:51.261Z,97226.13
2022-09-15T07:08:54.193Z,97222.03
2022-09-15T07:09:57.115Z,97224.16
2022-09-15T07:11:01.076Z,97234.59
2022-09-15T07:12:04.642Z,97233.22
2022-09-15T07:13:07.841Z,97226.97
2022-09-15T07:14:14.485Z,97235.38
2022-09-15T07:15:17.566Z,97234.00
2022-09-15T07:16:21.847Z,97245.91
2022-09-15T07:17:26.675Z,97241.72
2022-09-15T07:18:31.245Z,97241.72
2022-09-15T07:19:34.298Z,97245.91
2022-09-15T07:20:42.557Z,97247.34
2022-09-15T07:21:45.360Z,97243.91
2022-09-15T07:22:51.424Z,97242.63
2022-09-15T07:23:57.889Z,97247.53
2022-09-15T07:25:00.651Z,97245.53
2022-09-15T07:26:24.035Z,97249.09
2022-09-15T07:27:31.897Z,97245.69
2022-09-15T07:28:36.515Z,97250.69
2022-09-15T07:29:39.738Z,97238.91
2022-09-15T07:30:43.723Z,97243.19
2022-09-15T07:31:47.091Z,97247.56
2022-09-15T07:32:50.130Z,97253.84
2022-09-15T07:33:53.495Z,97243.47
2022-09-15T07:34:58.467Z,97253.97
2022-09-15T07:36:04.024Z,97261.66
2022-09-15T07:37:07.675Z,97258.16
2022-09-15T07:38:11.002Z,97257.53
2022-09-15T07:39:14.016Z,97250.66
2022-09-15T07:40:17.296Z,97252.25
2022-09-15T07:41:23.148Z,97258.47
2022-09-15T07:42:26.083Z,97252.88
2022-09-15T07:43:34.281Z,97254.22
2022-09-15T07:44:37.242Z,97254.91
2022-09-15T07:45:40.828Z,97251.44
2022-09-15T07:46:43.658Z,97255.69
2022-09-15T07:47:46.791Z,97253.06
2022-09-15T07:48:52.293Z,97253.91
2022-09-15T07:49:58.486Z,97256.78
2022-09-15T07:51:01.557Z,97254.06
2022-09-15T07:52:04.464Z,97253.44
2022-09-15T07:53:07.855Z,97255.47
2022-09-15T07:54:11.174Z,97249.13
2022-09-15T07:55:14.258Z,97251.19
2022-09-15T07:56:18.763Z,97254.69
2022-09-15T07:57:21.992Z,97247.84
2022-09-15T07:58:25.661Z,97260.62
2022-09-15T07:59:28.747Z,97256.50
2022-09-15T08:00:32.077Z,97260.88
2022-09-15T08:01:35.367Z,97265.88
2022-09-15T08:02:38.155Z,97271.59
2022-09-15T08:03:42.989Z,97261.25
2022-09-15T08:04:45.759Z,97255.16
2022-09-15T08:05:48.735Z,97249.72
2022-09-15T08:06:52.963Z,97249.03
2022-09-15T08:07:56.399Z,97248.28
2022-09-15T08:09:00.979Z,97255.97
2022-09-15T08:10:04.316Z,97253.19
2022-09-15T08:11:09.476Z,97258.06
2022-09-15T08:12:12.494Z,97265.03
2022-09-15T08:13:15.320Z,97267.16
2022-09-15T08:14:18.407Z,97263.66
2022-09-15T08:15:21.531Z,97258.19
2022-09-15T08:16:24.987Z,97265.94
2022-09-15T08:17:31.448Z,97265.97
2022-09-15T08:18:35.097Z,97266.66
2022-09-15T08:19:38.044Z,97266.78
2022-09-15T08:20:44.953Z,97271.84
2022-09-15T08:21:48.009Z,97264.94
2022-09-15T08:22:51.450Z,97267.75
2022-09-15T08:24:01.573Z,97274.03
2022-09-15T08:25:04.666Z,97257.94
2022-09-15T08:26:13.860Z,97254.47
2022-09-15T08:27:17.699Z,97246.75
2022-09-15T08:28:21.683Z,97245.38
2022-09-15T08:29:25.242Z,97246.75
2022-09-15T08:30:28.277Z,97241.84
2022-09-15T08:31:31.199Z,97248.81
2022-09-15T08:32:34.345Z,97254.47
2022-09-15T08:33:41.828Z,97255.16
2022-09-15T08:34:47.713Z,97245.41
2022-09-15T08:35:50.659Z,97247.59
2022-09-15T08:36:53.513Z,97248.31
2022-09-15T08:37:56.452Z,97251.19
2022-09-15T08:38:59.998Z,97255.50
2022-09-15T08:40:05.436Z,97249.94
2022-09-15T08:41:24.179Z,97248.56
2022-09-15T08:42:29.319Z,97245.78
2022-09-15T08:43:51.654Z,97243.09
2022-09-15T08:45:08.385Z,97238.22
2022-09-15T08:46:18.466Z,97229.16
2022-09-15T08:47:28.660Z,97234.81
2022-09-15T08:48:40.435Z,97233.44
2022-09-15T08:50:01.146Z,97229.97
2022-09-15T08:51:12.110Z,97227.22
2022-09-15T08:52:32.173Z,97223.00
2022-09-15T08:53:43.135Z,97224.44
2022-09-15T08:54:46.133Z,97223.81
2022-09-15T08:55:53.021Z,97223.12
2022-09-15T08:56:57.776Z,97230.12
2022-09-15T08:58:00.636Z,97222.47
2022-09-15T08:59:03.715Z,97216.19
2022-09-15T09:00:13.843Z,97204.28
2022-09-15T09:01:31.885Z,97208.53
2022-09-15T09:03:01.838Z,97211.31
2022-09-15T09:04:24.503Z,97203.63
2022-09-15T09:06:00.742Z,97217.66
2022-09-15T09:07:19.023Z,97214.91
2022-09-15T09:09:03.022Z,97213.47
2022-09-15T09:10:38.716Z,97203.66
2022-09-15T09:12:09.306Z,97200.12
2022-09-15T09:13:36.388Z,97198.03
2022-09-15T09:14:45.055Z,97197.31
2022-09-15T09:16:10.708Z,97198.03
2022-09-15T09:17:34.988Z,97197.31
2022-09-15T09:18:59.798Z,97200.12
2022-09-15T09:20:39.620Z,97190.28
2022-09-15T09:21:51.741Z,97185.41
2022-09-15T09:22:58.306Z,97183.28
2022-09-15T09:24:13.423Z,97187.50
2022-09-15T09:25:27.211Z,97198.00
2022-09-15T09:26:33.910Z,97190.28
2022-09-15T09:27:36.829Z,97185.38
2022-09-15T09:28:46.627Z,97188.84
2022-09-15T09:29:55.074Z,97188.84
2022-09-15T09:31:08.544Z,97186.75
2022-09-15T09:32:24.803Z,97195.84
2022-09-15T09:33:41.791Z,97194.47
2022-09-15T09:35:14.687Z,97200.09
2022-09-15T09:36:18.078Z,97193.09
2022-09-15T09:37:21.255Z,97198.72
2022-09-15T09:38:31.547Z,97206.44
2022-09-15T09:39:34.762Z,97202.22
2022-09-15T09:40:41.314Z,97198.69
2022-09-15T09:41:45.234Z,97198.00
2022-09-15T09:42:49.130Z,97195.91
2022-09-15T09:43:55.370Z,97191.69
2022-09-15T09:44:58.632Z,97192.41
2022-09-15T09:46:02.728Z,97190.31
2022-09-15T09:47:05.595Z,97180.47
2022-09-15T09:48:35.229Z,97180.50
2022-09-15T09:49:48.308Z,97167.16
2022-09-15T09:50:51.671Z,97172.06
2022-09-15T09:52:02.472Z,97161.53
2022-09-15T09:53:33.860Z,97166.44
2022-09-15T09:54:38.523Z,97173.47
2022-09-15T09:55:41.907Z,97169.25
2022-09-15T09:56:45.716Z,97159.41
2022-09-15T09:57:48.533Z,97162.22
2022-09-15T09:58:52.454Z,97163.63
2022-09-15T09:59:57.318Z,97150.31
2022-09-15T10:01:10.730Z,97159.44
2022-09-15T10:02:19.542Z,97153.81
2022-09-15T10:03:32.091Z,97153.09
2022-09-15T10:04:35.828Z,97156.63
2022-09-15T10:05:38.997Z,97151.03
2022-09-15T10:06:42.754Z,97146.09
2022-09-15T10:07:46.600Z,97144.00
2022-09-15T10:09:05.443Z,97139.09
2022-09-15T10:10:23.255Z,97136.25
2022-09-15T10:11:52.087Z,97136.28
2022-09-15T10:12:59.914Z,97133.47
2022-09-15T10:14:02.977Z,97129.97
2022-09-15T10:15:19.769Z,97128.56
2022-09-15T10:16:23.175Z,97118.72
2022-09-15T10:17:41.615Z,97126.47
2022-09-15T10:18:45.161Z,97125.03
2022-09-15T10:19:54.440Z,97122.22
2022-09-15T10:20:57.856Z,97118.69
2022-09-15T10:22:03.065Z,97110.22
2022-09-15T10:23:24.776Z,97106.03
2022-09-15T10:24:27.827Z,97101.75
2022-09-15T10:25:49.654Z,97100.34
2022-09-15T10:27:27.919Z,97098.94
2022-09-15T10:28:30.897Z,97096.09
2022-09-15T10:29:42.786Z,97093.28
2022-09-15T10:31:07.091Z,97089.75
2022-09-15T10:32:18.353Z,97098.25
2022-09-15T10:33:29.670Z,97096.87
2022-09-15T10:34:32.732Z,97097.59
2022-09-15T10:35:44.404Z,97097.59
2022-09-15T10:36:47.915Z,97099.00
2022-09-15T10:38:03.776Z,97099.69
2022-09-15T10:39:13.079Z,97103.88
2022-09-15T10:40:40.602Z,97109.50
2022-09-15T10:42:04.697Z,97100.34
2022-09-15T10:43:19.719Z,97103.13
2022-09-15T10:44:44.726Z,97113.66
2022-09-15T10:46:10.996Z,97109.41
2022-09-15T10:47:16.970Z,97105.91
2022-09-15T10:48:41.240Z,97115.75
2022-09-15T10:50:18.784Z,97104.50
2022-09-15T10:51:31.730Z,97101.72
2022-09-15T10:52:49.643Z,97104.50
2022-09-15T10:54:11.084Z,97103.81
2022-09-15T10:55:52.940Z,97105.13
2022-09-15T10:58:49.222Z,97105.75
2022-09-15T11:00:02.340Z,97103.69
2022-09-15T11:01:30.318Z,97109.97
2022-09-15T11:02:59.815Z,97106.50
2022-09-15T11:04:15.580Z,97114.16
2022-09-15T11:05:47.036Z,97114.13
2022-09-15T11:07:08.379Z,97109.16
2022-09-15T11:08:35.964Z,97108.44
2022-09-15T11:09:54.030Z,97108.50
2022-09-15T11:11:16.666Z,97102.22
2022-09-15T11:12:47.436Z,97107.28
2022-09-15T11:14:21.836Z,97104.47
2022-09-15T11:15:41.771Z,97107.28
2022-09-15T11:17:06.206Z,97104.50
2022-09-15T11:18:36.830Z,97112.91
2022-09-15T11:20:04.841Z,97114.41
2022-09-15T11:21:20.022Z,97110.88
2022-09-15T11:22:36.455Z,97107.38
2022-09-15T11:24:29.595Z,97107.41
2022-09-15T11:25:36.784Z,97093.44
2022-09-15T11:26:42.961Z,97095.56
2022-09-15T11:28:17.479Z,97099.06
2022-09-15T11:29:28.264Z,97092.78
2022-09-15T11:30:47.656Z,97091.38
2022-09-15T11:33:23.053Z,97096.97
2022-09-15T11:34:44.106Z,97089.25
2022-09-15T11:36:11.151Z,97089.97
2022-09-15T11:37:44.829Z,97087.16
2022-09-15T11:38:57.863Z,97087.16
2022-09-15T11:40:14.938Z,97085.78
2022-09-15T11:41:40.937Z,97084.38
2022-09-15T11:42:56.480Z,97070.34
2022-09-15T11:44:41.971Z,97074.53
2022-09-15T11:45:51.095Z,97059.81
2022-09-15T11:47:15.808Z,97050.69
2022-09-15T11:48:28.113Z,97039.50
2022-09-15T11:49:57.241Z,97037.34
2022-09-15T11:51:03.090Z,97035.25
2022-09-15T11:52:48.212Z,97024.00
2022-09-15T11:54:05.521Z,97019.09
2022-09-15T11:55:14.064Z,97021.13
2022-09-15T11:56:44.369Z,97013.37
2022-09-15T11:58:22.364Z,97023.19
2022-09-15T11:59:29.467Z,97028.13
2022-09-15T12:00:35.418Z,97029.53
2022-09-15T12:02:17.268Z,97031.59
2022-09-15T12:03:29.193Z,97043.53
2022-09-15T12:04:37.472Z,97038.69
2022-09-15T12:05:49.342Z,97040.81
2022-09-15T12:07:14.653Z,97035.94
2022-09-15T12:08:39.610Z,97035.25
2022-09-15T12:09:43.045Z,97045.09
2022-09-15T12:10:52.663Z,97049.31
2022-09-15T12:12:08.658Z,97046.53
2022-09-15T12:13:18.534Z,97059.84
2022-09-15T12:14:36.092Z,97063.34
2022-09-15T12:15:38.945Z,97069.66
2022-09-15T12:16:42.484Z,97060.53
2022-09-15T12:17:52.597Z,97064.06
2022-09-15T12:19:12.083Z,97052.13
2022-09-15T12:20:33.601Z,97043.69
2022-09-15T12:21:54.373Z,97044.41
2022-09-15T12:23:32.985Z,97021.97
2022-09-15T12:24:46.218Z,97027.56
2022-09-15T12:26:14.920Z,97025.44
2022-09-15T12:27:20.588Z,97026.13
2022-09-15T12:28:24.132Z,97021.94
2022-09-15T12:29:27.023Z,97021.91
2022-09-15T12:30:41.762Z,97018.41
2022-09-15T12:31:47.236Z,97018.38
2022-09-15T12:32:50.265Z,97017.62
2022-09-15T12:33:57.587Z,97019.72
2022-09-15T12:35:18.599Z,97019.00
2022-09-15T12:36:41.499Z,97018.28
2022-09-15T12:37:57.540Z,97024.53
2022-09-15T12:39:25.731Z,97030.78
2022-09-15T12:40:41.880Z,97025.12
2022-09-15T12:41:56.077Z,97023.69
2022-09-15T12:43:07.483Z,97018.72
2022-09-15T12:44:35.091Z,97014.44
2022-09-15T12:45:39.522Z,96992.69
2022-09-15T12:46:51.571Z,96994.81
2022-09-15T12:48:21.510Z,96987.81
2022-09-15T12:49:31.377Z,96982.19
2022-09-15T12:50:41.263Z,96986.94
2022-09-15T12:51:50.036Z,96984.06
2022-09-15T12:53:14.694Z,96995.88
2022-09-15T12:54:29.881Z,97013.28
2022-09-15T12:55:36.815Z,97052.91
2022-09-15T12:56:39.987Z,97098.22
2022-09-15T12:57:42.885Z,97109.25
2022-09-15T12:58:48.495Z,97105.50
2022-09-15T13:00:27.653Z,97101.03
2022-09-15T13:01:45.737Z,97113.19
2022-09-15T13:02:51.188Z,97087.75
2022-09-15T13:03:55.444Z,97058.16
2022-09-15T13:04:58.489Z,97022.06
2022-09-15T13:06:10.519Z,97002.91
2022-09-15T13:07:16.283Z,97000.56
2022-09-15T13:08:22.994Z,96994.81
2022-09-15T13:09:28.447Z,97003.72
2022-09-15T13:10:36.041Z,96998.84
2022-09-15T13:11:42.701Z,96994.88
2022-09-15T13:12:54.692Z,96993.19
2022-09-15T13:14:00.200Z,96997.03
2022-09-15T13:15:13.444Z,96995.56
2022-09-15T13:17:41.254Z,97008.78
2022-09-15T13:18:46.330Z,97003.22
2022-09-15T13:19:53.354Z,97014.25
2022-09-15T13:21:04.958Z,97009.94
2022-09-15T13:22:27.552Z,97015.41
2022-09-15T13:23:37.054Z,97013.19
2022-09-15T13:25:02.331Z,97004.78
2022-09-15T13:26:09.856Z,97008.25
2022-09-15T13:27:15.399Z,97007.50
2022-09-15T13:28:20.402Z,97009.62
2022-09-15T13:29:25.937Z,97012.41
2022-09-15T13:30:41.164Z,97015.16
2022-09-15T13:32:10.241Z,97022.84
2022-09-15T13:35:41.376Z,97047.22
2022-09-15T13:38:46.731Z,97025.94
2022-09-15T13:40:27.587Z,97034.72
2022-09-15T13:42:01.558Z,97040.44
2022-09-15T13:43:12.928Z,97034.91
2022-09-15T13:44:37.153Z,97027.28
2022-09-15T13:45:53.151Z,97029.31
2022-09-15T13:47:04.644Z,97020.97
2022-09-15T13:48:47.959Z,97014.53
2022-09-15T13:49:59.877Z,97016.59